createdAt,value
2019-03-21T00:00:45.701Z,6.43
2019-03-21T00:03:58.074Z,4.37
2019-03-21T00:07:06.141Z,5.37
2019-03-21T00:10:53.028Z,4.70
2019-03-21T00:14:10.283Z,4.17
2019-03-21T00:17:21.867Z,5.87
2019-03-21T00:20:30.191Z,6.63
2019-03-21T00:23:38.169Z,4.97
2019-03-21T00:26:46.377Z,5.00
2019-03-21T00:29:54.823Z,5.43
2019-03-21T00:33:24.546Z,5.57
2019-03-21T00:36:33.090Z,7.00
2019-03-21T00:39:41.935Z,4.97
2019-03-21T00:42:50.116Z,3.97
2019-03-21T00:45:58.394Z,7.97
2019-03-21T00:49:06.809Z,10.20
2019-03-21T00:52:14.981Z,10.13
2019-03-21T00:55:23.924Z,4.23
2019-03-21T00:58:31.998Z,5.47
2019-03-21T01:01:40.192Z,7.00
2019-03-21T01:04:48.564Z,4.50
2019-03-21T01:07:56.777Z,6.63
2019-03-21T01:11:05.242Z,6.33
2019-03-21T01:14:13.241Z,9.23
2019-03-21T01:17:21.540Z,5.50
2019-03-21T01:20:29.924Z,8.97
2019-03-21T01:23:38.117Z,13.63
2019-03-21T01:26:46.293Z,5.57
2019-03-21T01:29:54.355Z,7.47
2019-03-21T01:33:02.561Z,6.80
2019-03-21T01:36:10.827Z,7.47
2019-03-21T01:39:19.092Z,7.57
2019-03-21T01:42:27.062Z,7.47
2019-03-21T01:45:35.243Z,4.80
2019-03-21T01:48:43.635Z,6.17
2019-03-21T01:51:52.168Z,5.83
2019-03-21T01:55:00.569Z,7.03
2019-03-21T01:58:08.849Z,6.97
2019-03-21T02:01:16.992Z,8.80
2019-03-21T02:04:24.972Z,9.13
2019-03-21T02:07:33.073Z,6.57
2019-03-21T02:10:41.742Z,7.67
2019-03-21T02:13:49.917Z,7.47
2019-03-21T02:16:58.158Z,11.23
2019-03-21T02:20:07.286Z,12.87
2019-03-21T02:23:15.518Z,7.20
2019-03-21T02:26:23.588Z,5.67
2019-03-21T02:29:32.210Z,5.43
2019-03-21T02:32:41.174Z,9.33
2019-03-21T02:35:49.370Z,4.90
2019-03-21T02:38:57.765Z,5.33
2019-03-21T02:42:06.546Z,8.40
2019-03-21T02:45:15.399Z,7.57
2019-03-21T02:48:24.070Z,6.73
2019-03-21T02:51:32.617Z,6.70
2019-03-21T02:54:40.700Z,8.83
2019-03-21T02:57:49.235Z,5.10
2019-03-21T03:00:57.570Z,4.77
2019-03-21T03:04:05.664Z,7.70
2019-03-21T03:07:13.750Z,4.97
2019-03-21T03:10:29.392Z,5.50
2019-03-21T03:13:37.880Z,8.20
2019-03-21T03:16:46.103Z,6.77
2019-03-21T03:19:54.153Z,9.20
2019-03-21T03:23:02.728Z,5.53
2019-03-21T03:26:10.831Z,5.17
2019-03-21T03:29:19.267Z,8.83
2019-03-21T03:32:27.264Z,5.90
2019-03-21T03:35:35.340Z,6.33
2019-03-21T03:38:43.637Z,9.10
2019-03-21T03:41:51.840Z,6.23
2019-03-21T03:45:00.399Z,6.53
2019-03-21T03:48:09.186Z,8.13
2019-03-21T03:51:17.318Z,5.13
2019-03-21T03:54:27.003Z,5.17
2019-03-21T03:57:35.742Z,6.10
2019-03-21T04:00:44.462Z,5.30
2019-03-21T04:03:53.173Z,4.90
2019-03-21T04:07:01.460Z,4.73
2019-03-21T04:10:14.791Z,5.33
2019-03-21T04:13:23.699Z,6.77
2019-03-21T04:16:31.934Z,4.53
2019-03-21T04:19:40.145Z,6.13
2019-03-21T04:22:48.586Z,7.53
2019-03-21T04:26:20.376Z,5.23
2019-03-21T04:29:29.142Z,9.10
2019-03-21T04:32:37.801Z,5.63
2019-03-21T04:35:46.072Z,8.27
2019-03-21T04:38:54.856Z,6.27
2019-03-21T04:42:03.633Z,4.17
2019-03-21T04:45:17.469Z,8.10
2019-03-21T04:48:25.805Z,6.47
2019-03-21T04:51:34.579Z,4.17
2019-03-21T04:54:42.982Z,4.87
2019-03-21T04:57:52.839Z,6.07
2019-03-21T05:01:01.742Z,8.73
2019-03-21T05:04:10.202Z,6.80
2019-03-21T05:07:18.619Z,6.43
2019-03-21T05:10:27.048Z,7.87
2019-03-21T05:13:35.741Z,5.93
2019-03-21T05:16:45.103Z,8.20
2019-03-21T05:19:53.706Z,6.30
2019-03-21T05:23:02.201Z,6.80
2019-03-21T05:26:10.925Z,10.70
2019-03-21T05:29:19.558Z,6.37
2019-03-21T05:32:27.894Z,7.17
2019-03-21T05:35:36.078Z,8.57
2019-03-21T05:38:44.622Z,6.53
2019-03-21T05:41:53.036Z,10.10
2019-03-21T05:45:01.270Z,8.93
2019-03-21T05:48:09.371Z,6.93
2019-03-21T05:51:18.009Z,15.63
2019-03-21T05:54:26.212Z,10.47
2019-03-21T05:57:34.394Z,7.00
2019-03-21T06:00:43.904Z,6.80
2019-03-21T06:03:52.397Z,13.43
2019-03-21T06:07:16.560Z,10.13
2019-03-21T06:10:24.726Z,7.37
2019-03-21T06:13:32.858Z,8.23
2019-03-21T06:16:41.294Z,9.37
2019-03-21T06:20:09.077Z,10.63
2019-03-21T06:24:13.047Z,9.90
2019-03-21T06:27:29.694Z,6.57
2019-03-21T06:30:38.045Z,7.63
2019-03-21T06:33:46.419Z,5.97
2019-03-21T06:36:54.851Z,4.20
2019-03-21T06:40:03.563Z,8.07
2019-03-21T06:43:11.971Z,4.50
2019-03-21T06:46:20.311Z,4.60
2019-03-21T06:49:28.601Z,3.93
2019-03-21T06:52:37.111Z,4.60
2019-03-21T06:55:46.195Z,3.63
2019-03-21T06:58:54.706Z,5.97
2019-03-21T07:02:03.000Z,8.20
2019-03-21T07:05:11.742Z,5.90
2019-03-21T07:08:20.124Z,5.70
2019-03-21T07:11:28.424Z,7.70
2019-03-21T07:14:36.695Z,4.73
2019-03-21T07:17:44.870Z,5.23
2019-03-21T07:24:08.927Z,4.07
2019-03-21T07:27:18.236Z,4.87
2019-03-21T07:30:26.626Z,7.00
2019-03-21T07:33:35.067Z,7.77
2019-03-21T07:36:43.324Z,5.37
2019-03-21T07:39:52.138Z,3.70
2019-03-21T07:43:00.730Z,5.57
2019-03-21T07:46:09.041Z,4.23
2019-03-21T07:49:17.477Z,7.30
2019-03-21T07:52:26.737Z,6.33
2019-03-21T07:55:35.597Z,5.57
2019-03-21T07:58:44.903Z,5.03
2019-03-21T08:01:53.332Z,6.97
2019-03-21T08:05:02.023Z,5.00
2019-03-21T08:08:10.279Z,3.37
2019-03-21T08:11:18.871Z,2.67
2019-03-21T08:14:27.925Z,4.33
2019-03-21T08:17:36.261Z,2.70
2019-03-21T08:20:55.686Z,3.33
2019-03-21T08:23:55.986Z,2.50
2019-03-21T08:27:04.965Z,3.03
2019-03-21T08:30:32.048Z,3.63
2019-03-21T08:33:40.826Z,2.50
2019-03-21T08:36:49.533Z,2.07
2019-03-21T08:39:59.111Z,2.87
2019-03-21T08:43:07.503Z,4.47
2019-03-21T08:46:15.847Z,5.07
2019-03-21T08:49:24.678Z,4.03
2019-03-21T08:52:33.701Z,5.10
2019-03-21T08:55:42.122Z,4.43
2019-03-21T08:58:50.447Z,4.63
2019-03-21T09:01:58.911Z,3.37
2019-03-21T09:05:07.515Z,2.73
2019-03-21T09:08:16.016Z,2.70
2019-03-21T09:11:24.716Z,5.83
2019-03-21T09:14:33.237Z,2.60
2019-03-21T09:17:41.859Z,3.17
2019-03-21T09:20:51.058Z,3.20
2019-03-21T09:24:00.239Z,2.97
2019-03-21T09:27:08.545Z,2.63
2019-03-21T09:30:17.099Z,4.13
2019-03-21T09:33:25.806Z,1.73
2019-03-21T09:36:34.476Z,2.40
2019-03-21T09:39:43.230Z,4.57
2019-03-21T09:42:51.914Z,2.77
2019-03-21T09:46:00.120Z,3.47
2019-03-21T09:49:08.698Z,4.70
2019-03-21T09:52:17.732Z,3.40
2019-03-21T09:55:26.260Z,3.70
2019-03-21T09:58:35.289Z,3.60
2019-03-21T10:01:43.491Z,4.67
2019-03-21T10:04:51.940Z,3.57
2019-03-21T10:08:00.562Z,2.60
2019-03-21T10:11:09.092Z,3.33
2019-03-21T10:14:17.673Z,8.73
2019-03-21T10:17:26.102Z,2.30
2019-03-21T10:20:34.538Z,7.17
2019-03-21T10:23:43.038Z,3.33
2019-03-21T10:26:51.229Z,3.37
2019-03-21T10:29:59.865Z,5.63
2019-03-21T10:33:12.374Z,4.03
2019-03-21T10:36:21.044Z,6.67
2019-03-21T10:39:29.313Z,2.83
2019-03-21T10:42:37.664Z,4.57
2019-03-21T10:45:46.673Z,3.93
2019-03-21T10:48:54.978Z,4.07
2019-03-21T10:52:03.290Z,2.90
2019-03-21T10:55:11.690Z,3.77
2019-03-21T10:58:20.373Z,3.57
2019-03-21T11:01:28.891Z,4.00
2019-03-21T11:04:37.484Z,2.83
2019-03-21T11:07:45.892Z,3.27
2019-03-21T11:10:54.767Z,3.27
2019-03-21T11:14:03.115Z,7.13
2019-03-21T11:17:11.411Z,4.23
2019-03-21T11:20:31.833Z,3.53
2019-03-21T11:23:40.774Z,5.13
2019-03-21T11:26:48.962Z,3.03
2019-03-21T11:29:57.045Z,2.77
2019-03-21T11:33:06.135Z,4.73
2019-03-21T11:36:14.567Z,4.37
2019-03-21T11:39:22.670Z,4.80
2019-03-21T11:42:31.307Z,4.60
2019-03-21T11:45:39.925Z,6.20
2019-03-21T11:48:48.455Z,3.43
2019-03-21T11:51:56.640Z,4.67
2019-03-21T11:55:05.439Z,3.70
2019-03-21T11:58:13.627Z,2.80
2019-03-21T12:01:21.811Z,3.00
2019-03-21T12:04:30.108Z,3.50
2019-03-21T12:07:38.645Z,5.00
2019-03-21T12:10:46.902Z,4.73
2019-03-21T12:13:55.095Z,5.73
2019-03-21T12:17:03.399Z,3.20
2019-03-21T12:20:12.670Z,7.53
2019-03-21T12:23:20.974Z,3.73
2019-03-21T12:26:29.247Z,4.20
2019-03-21T12:29:37.652Z,4.67
2019-03-21T12:32:45.924Z,3.43
2019-03-21T12:35:54.260Z,3.10
2019-03-21T12:39:04.713Z,4.83
2019-03-21T12:42:12.906Z,3.97
2019-03-21T12:45:21.436Z,5.27
2019-03-21T12:48:29.679Z,5.60
2019-03-21T12:51:37.843Z,3.07
2019-03-21T12:54:46.461Z,3.57
2019-03-21T12:57:55.132Z,3.13
2019-03-21T13:01:03.534Z,6.77
2019-03-21T13:04:11.841Z,5.10
2019-03-21T13:07:20.462Z,4.53
2019-03-21T13:10:29.280Z,4.20
2019-03-21T13:13:38.890Z,4.47
2019-03-21T13:16:47.221Z,2.60
2019-03-21T13:19:55.768Z,5.23
2019-03-21T13:23:05.193Z,6.83
2019-03-21T13:26:13.372Z,6.17
2019-03-21T13:29:21.844Z,4.13
2019-03-21T13:32:31.311Z,2.43
2019-03-21T13:35:39.388Z,5.20
2019-03-21T13:38:47.481Z,4.97
2019-03-21T13:41:55.655Z,4.13
2019-03-21T13:45:04.483Z,5.40
2019-03-21T13:48:12.940Z,5.80
2019-03-21T13:51:21.116Z,2.83
2019-03-21T13:54:29.641Z,3.40
2019-03-21T13:57:38.308Z,4.23
2019-03-21T14:00:47.334Z,4.10
2019-03-21T14:03:55.878Z,7.70
2019-03-21T14:07:04.346Z,3.83
2019-03-21T14:10:13.258Z,3.70
2019-03-21T14:13:21.921Z,5.80
2019-03-21T14:16:30.747Z,4.53
2019-03-21T14:19:39.733Z,2.87
2019-03-21T14:22:48.730Z,6.67
2019-03-21T14:25:57.165Z,9.23
2019-03-21T14:29:12.656Z,5.10
2019-03-21T14:32:16.306Z,4.77
2019-03-21T14:35:24.923Z,5.13
2019-03-21T14:38:34.189Z,5.33
2019-03-21T14:41:43.226Z,7.47
2019-03-21T14:44:52.599Z,3.90
2019-03-21T14:48:01.315Z,6.03
2019-03-21T14:51:10.377Z,4.97
2019-03-21T14:54:19.338Z,5.67
2019-03-21T14:57:29.801Z,5.77
2019-03-21T15:00:39.167Z,4.93
2019-03-21T15:03:50.797Z,5.40
2019-03-21T15:06:59.207Z,6.03
2019-03-21T15:10:09.304Z,6.77
2019-03-21T15:13:18.122Z,5.93
2019-03-21T15:16:27.604Z,6.53
2019-03-21T15:19:39.342Z,6.33
2019-03-21T15:22:49.683Z,8.90
2019-03-21T15:25:58.891Z,6.57
2019-03-21T15:29:08.017Z,4.73
2019-03-21T15:32:16.751Z,9.53
2019-03-21T15:35:25.292Z,6.97
2019-03-21T15:38:34.064Z,10.47
2019-03-21T15:41:42.718Z,4.50
2019-03-21T15:44:51.801Z,7.83
2019-03-21T15:48:00.942Z,10.63
2019-03-21T15:51:09.978Z,8.30
2019-03-21T15:54:18.553Z,7.37
2019-03-21T15:57:28.481Z,4.13
2019-03-21T16:00:39.295Z,5.23
2019-03-21T16:03:48.555Z,8.80
2019-03-21T16:06:57.462Z,5.70
2019-03-21T16:10:07.966Z,6.03
2019-03-21T16:13:17.070Z,6.70
2019-03-21T16:16:25.635Z,6.67
2019-03-21T16:19:34.183Z,4.73
2019-03-21T16:22:43.299Z,4.30
2019-03-21T16:25:52.539Z,6.50
2019-03-21T16:29:00.885Z,7.73
2019-03-21T16:32:10.256Z,5.63
2019-03-21T16:35:19.156Z,7.80
2019-03-21T16:38:28.085Z,4.03
2019-03-21T16:41:36.976Z,5.50
2019-03-21T16:44:45.584Z,7.67
2019-03-21T16:47:54.142Z,6.30
2019-03-21T16:51:03.298Z,8.07
2019-03-21T16:54:17.434Z,7.80
2019-03-21T16:57:25.617Z,5.60
2019-03-21T17:00:35.076Z,5.13
2019-03-21T17:03:43.890Z,8.10
2019-03-21T17:06:52.366Z,5.87
2019-03-21T17:10:00.950Z,5.37
2019-03-21T17:13:09.473Z,4.70
2019-03-21T17:16:18.871Z,4.53
2019-03-21T17:19:27.509Z,4.37
2019-03-21T17:22:42.867Z,6.50
2019-03-21T17:25:52.499Z,6.77
2019-03-21T17:29:02.176Z,10.03
2019-03-21T17:32:11.186Z,16.20
2019-03-21T17:35:19.947Z,11.20
2019-03-21T17:38:29.287Z,8.33
2019-03-21T17:41:37.952Z,4.87
2019-03-21T17:44:47.260Z,6.33
2019-03-21T17:47:55.787Z,6.83
2019-03-21T17:51:04.518Z,6.53
2019-03-21T17:54:12.961Z,6.83
2019-03-21T17:57:33.696Z,5.07
2019-03-21T18:00:33.253Z,3.70
2019-03-21T18:03:41.925Z,4.67
2019-03-21T18:06:50.469Z,5.20
2019-03-21T18:09:59.115Z,5.13
2019-03-21T18:13:07.543Z,7.97
2019-03-21T18:16:18.664Z,18.00
2019-03-21T18:19:28.233Z,16.03
2019-03-21T18:22:37.142Z,17.00
2019-03-21T18:25:45.904Z,13.27
2019-03-21T18:28:55.022Z,10.73
2019-03-21T18:32:03.822Z,11.53
2019-03-21T18:35:13.283Z,10.50
2019-03-21T18:38:41.849Z,10.20
2019-03-21T18:41:50.410Z,13.83
2019-03-21T18:44:59.074Z,13.37
2019-03-21T18:48:07.539Z,14.17
2019-03-21T18:51:16.947Z,15.60
2019-03-21T18:54:25.938Z,9.60
2019-03-21T18:57:35.423Z,6.77
2019-03-21T19:00:43.986Z,10.00
2019-03-21T19:03:52.448Z,9.10
2019-03-21T19:07:00.830Z,6.27
2019-03-21T19:10:09.896Z,10.70
2019-03-21T19:13:18.888Z,8.90
2019-03-21T19:16:27.215Z,8.80
2019-03-21T19:19:35.413Z,8.37
2019-03-21T19:22:44.394Z,9.70
2019-03-21T19:25:53.073Z,6.43
2019-03-21T19:29:02.589Z,12.00
2019-03-21T19:32:11.984Z,18.33
2019-03-21T19:35:20.704Z,22.40
2019-03-21T19:38:29.015Z,20.73
2019-03-21T19:41:37.675Z,13.83
2019-03-21T19:44:45.939Z,15.23
2019-03-21T19:47:54.344Z,13.33
2019-03-21T19:51:02.990Z,15.83
2019-03-21T19:54:11.685Z,17.27
2019-03-21T19:57:22.507Z,12.53
2019-03-21T20:00:30.968Z,12.10
2019-03-21T20:03:39.317Z,9.73
2019-03-21T20:06:48.947Z,11.07
2019-03-21T20:09:57.562Z,14.63
2019-03-21T20:13:06.096Z,15.57
2019-03-21T20:16:14.841Z,20.87
2019-03-21T20:19:23.582Z,22.40
2019-03-21T20:22:33.400Z,18.07
2019-03-21T20:25:43.298Z,16.90
2019-03-21T20:28:52.591Z,19.77
2019-03-21T20:32:01.175Z,22.10
2019-03-21T20:35:10.251Z,17.17
2019-03-21T20:38:19.329Z,18.77
2019-03-21T20:41:27.947Z,11.93
2019-03-21T20:44:36.619Z,9.03
2019-03-21T20:47:45.328Z,7.87
2019-03-21T20:50:53.714Z,9.03
2019-03-21T20:54:02.086Z,9.13
2019-03-21T20:57:10.806Z,8.77
2019-03-21T21:00:22.453Z,8.43
2019-03-21T21:03:31.226Z,9.43
2019-03-21T21:06:40.364Z,7.47
2019-03-21T21:09:49.273Z,8.47
2019-03-21T21:12:58.228Z,7.37
2019-03-21T21:16:06.666Z,9.33
2019-03-21T21:19:15.617Z,9.73
2019-03-21T21:22:24.295Z,10.10
2019-03-21T21:25:32.952Z,8.23
2019-03-21T21:28:41.123Z,7.47
2019-03-21T21:31:49.737Z,6.33
2019-03-21T21:34:58.888Z,7.47
2019-03-21T21:38:08.232Z,7.77
2019-03-21T21:41:16.849Z,5.87
2019-03-21T21:44:25.680Z,5.97
2019-03-21T21:47:34.225Z,7.00
2019-03-21T21:50:42.770Z,11.13
2019-03-21T21:53:52.151Z,7.33
2019-03-21T21:57:00.541Z,12.17
2019-03-21T22:00:12.041Z,7.27
2019-03-21T22:03:20.593Z,10.53
2019-03-21T22:06:28.982Z,13.17
2019-03-21T22:09:37.713Z,15.10
2019-03-21T22:12:46.544Z,10.77
2019-03-21T22:15:55.808Z,9.27
2019-03-21T22:19:04.204Z,8.70
2019-03-21T22:22:12.621Z,7.33
2019-03-21T22:25:20.984Z,8.73
2019-03-21T22:28:30.099Z,5.77
2019-03-21T22:31:39.777Z,8.50
2019-03-21T22:34:48.087Z,6.87
2019-03-21T22:37:56.500Z,8.23
2019-03-21T22:41:04.902Z,5.37
2019-03-21T22:44:13.653Z,6.50
2019-03-21T22:47:22.426Z,11.93
2019-03-21T22:50:30.844Z,10.30
2019-03-21T22:53:39.071Z,10.53
2019-03-21T22:56:47.669Z,8.37
2019-03-21T22:59:56.279Z,6.63
2019-03-21T23:03:04.732Z,10.00
2019-03-21T23:06:13.229Z,6.53
2019-03-21T23:09:21.532Z,7.83
2019-03-21T23:12:30.276Z,11.77
2019-03-21T23:15:38.899Z,7.77
2019-03-21T23:18:47.456Z,11.03
2019-03-21T23:21:56.251Z,12.07
2019-03-21T23:25:07.413Z,7.93
2019-03-21T23:28:15.937Z,7.97
2019-03-21T23:31:24.418Z,8.50
2019-03-21T23:34:32.992Z,10.47
2019-03-21T23:37:41.694Z,9.07
2019-03-21T23:40:50.058Z,7.70
2019-03-21T23:43:58.321Z,8.07
2019-03-21T23:47:06.554Z,9.47
2019-03-21T23:50:15.456Z,10.50
2019-03-21T23:53:24.217Z,7.57
2019-03-21T23:56:32.401Z,12.50
2019-03-21T23:59:40.934Z,7.40
